Portada
METAR-TAF:

METAR-TAF

Aeroports :

Hyderabad, Índia

latitud: 17-14-00N, longitud: 078-26-00E, altitud: 617 m

Observació

L'informe es va fer fa 18 minuts, a les 09:00 UTC
Vent 3 kt amb direcció variable
Temperatura 29°C
Humitat 48%
Pressió 1011 hPa
Visibilitat: 6000 m

METAR: VOHS 240900Z VRB03KT 6000 NSC 29/17 Q1011 NOSIG

Hora: 14:48 (09:18 UTC)

Pronòstic

L'informe es va fer fa 1 hora i 18 minuts, a les 08:00 UTC
Pronòstic vàlid del 24 a les 09 UTC al 24 a les 18 UTC
Vent 5 kt del Nord-Est
Visibilitat: 5000 m
Escasses núvols a una alçada de 1500 ft
calitja

TAF: VOHS 240800Z 2409/2418 05005KT 5000 HZ FEW015

Observacions i pronòstics meteorològics de més de 4000 aeroports (METAR i TAF).

Les estacions disponibles són els punts grocs i vermells al mapa.

Posi el ratolí al punt desitjat per veure el nom de l'estació.

Feu clic per veure les observacions i els pronòstics meteorològics.

Per canviar el mapa: feu clic els botons verds amb una creu de color negre per apropar; al botó verd amb un guió per allunyar la imatge; o en les fletxes verdes per a mapes adjacents.


METAR-TAF: